sensor_id;sensor_type;location;lat;lon;timestamp;P1;durP1;ratioP1;P2;durP2;ratioP2
69401;SDS011;56589;51.992;5.924;2023-12-29T00:02:18;8.77;;;1.42;;
69401;SDS011;56589;51.992;5.924;2023-12-29T00:04:44;8.60;;;1.42;;
69401;SDS011;56589;51.992;5.924;2023-12-29T00:07:09;9.57;;;1.40;;
69401;SDS011;56589;51.992;5.924;2023-12-29T00:09:35;8.57;;;1.50;;
69401;SDS011;56589;51.992;5.924;2023-12-29T00:12:01;14.07;;;1.63;;
69401;SDS011;56589;51.992;5.924;2023-12-29T00:14:30;8.43;;;1.02;;
69401;SDS011;56589;51.992;5.924;2023-12-29T00:16:55;10.07;;;1.50;;
69401;SDS011;56589;51.992;5.924;2023-12-29T00:19:23;8.95;;;1.30;;
69401;SDS011;56589;51.992;5.924;2023-12-29T00:21:49;10.13;;;1.65;;
69401;SDS011;56589;51.992;5.924;2023-12-29T00:24:14;6.97;;;0.85;;
69401;SDS011;56589;51.992;5.924;2023-12-29T00:26:40;9.00;;;1.83;;
69401;SDS011;56589;51.992;5.924;2023-12-29T00:29:06;5.50;;;1.15;;
69401;SDS011;56589;51.992;5.924;2023-12-29T00:31:34;14.52;;;2.35;;
69401;SDS011;56589;51.992;5.924;2023-12-29T00:34:00;8.30;;;1.42;;
69401;SDS011;56589;51.992;5.924;2023-12-29T00:36:26;8.32;;;1.50;;
69401;SDS011;56589;51.992;5.924;2023-12-29T00:38:52;6.90;;;1.55;;
69401;SDS011;56589;51.992;5.924;2023-12-29T00:41:18;5.25;;;1.35;;
69401;SDS011;56589;51.992;5.924;2023-12-29T00:43:44;8.68;;;1.58;;
69401;SDS011;56589;51.992;5.924;2023-12-29T00:46:10;7.85;;;1.75;;
69401;SDS011;56589;51.992;5.924;2023-12-29T00:48:42;10.25;;;1.60;;
69401;SDS011;56589;51.992;5.924;2023-12-29T00:51:07;10.68;;;2.15;;
69401;SDS011;56589;51.992;5.924;2023-12-29T00:53:34;7.47;;;1.45;;
69401;SDS011;56589;51.992;5.924;2023-12-29T00:56:00;5.10;;;1.00;;
69401;SDS011;56589;51.992;5.924;2023-12-29T00:58:27;8.13;;;1.45;;
69401;SDS011;56589;51.992;5.924;2023-12-29T01:00:53;5.63;;;1.30;;
69401;SDS011;56589;51.992;5.924;2023-12-29T01:03:18;10.15;;;1.60;;
69401;SDS011;56589;51.992;5.924;2023-12-29T01:05:47;6.72;;;1.65;;
69401;SDS011;56589;51.992;5.924;2023-12-29T01:08:13;11.27;;;1.35;;
69401;SDS011;56589;51.992;5.924;2023-12-29T01:10:38;6.40;;;1.63;;
69401;SDS011;56589;51.992;5.924;2023-12-29T01:13:04;9.05;;;1.63;;
69401;SDS011;56589;51.992;5.924;2023-12-29T01:15:30;6.30;;;1.30;;
69401;SDS011;56589;51.992;5.924;2023-12-29T01:17:56;10.27;;;1.20;;
69401;SDS011;56589;51.992;5.924;2023-12-29T01:20:23;6.70;;;1.50;;
69401;SDS011;56589;51.992;5.924;2023-12-29T01:22:52;5.93;;;1.10;;
69401;SDS011;56589;51.992;5.924;2023-12-29T01:25:18;10.75;;;1.27;;
69401;SDS011;56589;51.992;5.924;2023-12-29T01:27:44;14.18;;;1.50;;
69401;SDS011;56589;51.992;5.924;2023-12-29T01:30:10;7.57;;;1.33;;
69401;SDS011;56589;51.992;5.924;2023-12-29T01:32:36;10.77;;;1.80;;
69401;SDS011;56589;51.992;5.924;2023-12-29T01:35:02;10.27;;;1.98;;
69401;SDS011;56589;51.992;5.924;2023-12-29T01:37:29;8.32;;;1.40;;
69401;SDS011;56589;51.992;5.924;2023-12-29T01:39:57;6.93;;;1.55;;
69401;SDS011;56589;51.992;5.924;2023-12-29T01:42:23;5.60;;;1.33;;
69401;SDS011;56589;51.992;5.924;2023-12-29T01:44:49;12.77;;;1.73;;
69401;SDS011;56589;51.992;5.924;2023-12-29T01:47:14;10.80;;;1.60;;
69401;SDS011;56589;51.992;5.924;2023-12-29T01:49:42;8.23;;;1.77;;
69401;SDS011;56589;51.992;5.924;2023-12-29T01:52:10;6.82;;;1.42;;
69401;SDS011;56589;51.992;5.924;2023-12-29T01:54:38;8.15;;;1.45;;
69401;SDS011;56589;51.992;5.924;2023-12-29T01:57:07;12.68;;;2.30;;
69401;SDS011;56589;51.992;5.924;2023-12-29T01:59:33;7.55;;;1.60;;
69401;SDS011;56589;51.992;5.924;2023-12-29T02:02:00;5.97;;;1.40;;
69401;SDS011;56589;51.992;5.924;2023-12-29T02:04:27;8.45;;;1.52;;
69401;SDS011;56589;51.992;5.924;2023-12-29T02:06:53;11.05;;;1.60;;
69401;SDS011;56589;51.992;5.924;2023-12-29T02:09:20;6.90;;;1.42;;
69401;SDS011;56589;51.992;5.924;2023-12-29T02:11:47;3.38;;;1.10;;
69401;SDS011;56589;51.992;5.924;2023-12-29T02:14:18;8.20;;;1.20;;
69401;SDS011;56589;51.992;5.924;2023-12-29T02:16:46;7.85;;;1.38;;
69401;SDS011;56589;51.992;5.924;2023-12-29T02:22:10;7.65;;;1.30;;
69401;SDS011;56589;51.992;5.924;2023-12-29T02:24:37;12.55;;;3.10;;
69401;SDS011;56589;51.992;5.924;2023-12-29T02:27:10;12.10;;;1.48;;
69401;SDS011;56589;51.992;5.924;2023-12-29T02:29:48;8.27;;;1.35;;
69401;SDS011;56589;51.992;5.924;2023-12-29T02:32:32;6.20;;;1.48;;
69401;SDS011;56589;51.992;5.924;2023-12-29T02:35:03;7.60;;;1.50;;
69401;SDS011;56589;51.992;5.924;2023-12-29T02:37:34;11.75;;;1.63;;
69401;SDS011;56589;51.992;5.924;2023-12-29T02:40:04;6.13;;;1.02;;
69401;SDS011;56589;51.992;5.924;2023-12-29T02:42:34;6.68;;;1.20;;
69401;SDS011;56589;51.992;5.924;2023-12-29T02:45:00;6.28;;;1.45;;
69401;SDS011;56589;51.992;5.924;2023-12-29T02:47:26;6.47;;;1.20;;
69401;SDS011;56589;51.992;5.924;2023-12-29T02:49:53;10.05;;;1.60;;
69401;SDS011;56589;51.992;5.924;2023-12-29T02:52:18;6.72;;;1.80;;
69401;SDS011;56589;51.992;5.924;2023-12-29T02:54:44;8.05;;;1.73;;
69401;SDS011;56589;51.992;5.924;2023-12-29T02:57:10;12.02;;;1.70;;
69401;SDS011;56589;51.992;5.924;2023-12-29T02:59:38;12.25;;;1.65;;
69401;SDS011;56589;51.992;5.924;2023-12-29T03:02:04;9.82;;;1.83;;
69401;SDS011;56589;51.992;5.924;2023-12-29T03:04:30;7.85;;;1.27;;
69401;SDS011;56589;51.992;5.924;2023-12-29T03:06:56;12.07;;;1.83;;
69401;SDS011;56589;51.992;5.924;2023-12-29T03:09:21;5.95;;;1.30;;
69401;SDS011;56589;51.992;5.924;2023-12-29T03:11:47;8.15;;;1.95;;
69401;SDS011;56589;51.992;5.924;2023-12-29T03:14:14;11.65;;;2.50;;
69401;SDS011;56589;51.992;5.924;2023-12-29T03:16:42;6.68;;;1.10;;
69401;SDS011;56589;51.992;5.924;2023-12-29T03:19:08;8.07;;;2.65;;
69401;SDS011;56589;51.992;5.924;2023-12-29T03:21:34;7.80;;;1.52;;
69401;SDS011;56589;51.992;5.924;2023-12-29T03:24:00;9.38;;;1.38;;
69401;SDS011;56589;51.992;5.924;2023-12-29T03:26:26;6.82;;;1.25;;
69401;SDS011;56589;51.992;5.924;2023-12-29T03:28:52;8.95;;;1.30;;
69401;SDS011;56589;51.992;5.924;2023-12-29T03:31:20;10.63;;;1.75;;
69401;SDS011;56589;51.992;5.924;2023-12-29T03:33:49;9.85;;;1.85;;
69401;SDS011;56589;51.992;5.924;2023-12-29T03:36:14;9.15;;;1.40;;
69401;SDS011;56589;51.992;5.924;2023-12-29T03:38:40;6.95;;;1.27;;
69401;SDS011;56589;51.992;5.924;2023-12-29T03:41:06;11.25;;;1.65;;
69401;SDS011;56589;51.992;5.924;2023-12-29T03:43:32;8.00;;;1.50;;
69401;SDS011;56589;51.992;5.924;2023-12-29T03:45:58;10.82;;;1.50;;
69401;SDS011;56589;51.992;5.924;2023-12-29T03:48:26;11.30;;;1.40;;
69401;SDS011;56589;51.992;5.924;2023-12-29T03:50:55;10.98;;;1.83;;
69401;SDS011;56589;51.992;5.924;2023-12-29T03:53:21;8.63;;;1.55;;
69401;SDS011;56589;51.992;5.924;2023-12-29T03:55:46;16.90;;;2.13;;
69401;SDS011;56589;51.992;5.924;2023-12-29T03:58:12;10.32;;;1.80;;
69401;SDS011;56589;51.992;5.924;2023-12-29T04:00:38;9.70;;;1.48;;
69401;SDS011;56589;51.992;5.924;2023-12-29T04:03:04;16.00;;;1.83;;
69401;SDS011;56589;51.992;5.924;2023-12-29T04:05:30;9.73;;;1.77;;
69401;SDS011;56589;51.992;5.924;2023-12-29T04:07:58;9.30;;;2.00;;
69401;SDS011;56589;51.992;5.924;2023-12-29T04:10:25;13.05;;;2.15;;
69401;SDS011;56589;51.992;5.924;2023-12-29T04:12:51;15.73;;;3.58;;
69401;SDS011;56589;51.992;5.924;2023-12-29T04:15:17;16.20;;;1.90;;
69401;SDS011;56589;51.992;5.924;2023-12-29T04:17:43;15.85;;;2.03;;
69401;SDS011;56589;51.992;5.924;2023-12-29T04:20:09;12.25;;;2.42;;
69401;SDS011;56589;51.992;5.924;2023-12-29T04:22:35;11.05;;;2.50;;
69401;SDS011;56589;51.992;5.924;2023-12-29T04:25:04;10.45;;;1.80;;
69401;SDS011;56589;51.992;5.924;2023-12-29T04:27:30;9.40;;;1.63;;
69401;SDS011;56589;51.992;5.924;2023-12-29T04:29:56;9.57;;;1.80;;
69401;SDS011;56589;51.992;5.924;2023-12-29T04:32:22;10.75;;;3.25;;
69401;SDS011;56589;51.992;5.924;2023-12-29T04:34:47;13.95;;;1.80;;
69401;SDS011;56589;51.992;5.924;2023-12-29T04:37:13;16.02;;;3.10;;
69401;SDS011;56589;51.992;5.924;2023-12-29T04:39:39;15.95;;;2.05;;
69401;SDS011;56589;51.992;5.924;2023-12-29T04:42:07;12.98;;;2.28;;
69401;SDS011;56589;51.992;5.924;2023-12-29T04:44:33;14.98;;;2.17;;
69401;SDS011;56589;51.992;5.924;2023-12-29T04:46:59;14.55;;;1.80;;
69401;SDS011;56589;51.992;5.924;2023-12-29T04:49:25;13.75;;;2.97;;
69401;SDS011;56589;51.992;5.924;2023-12-29T04:51:50;9.10;;;1.63;;
69401;SDS011;56589;51.992;5.924;2023-12-29T04:54:16;14.63;;;2.63;;
69401;SDS011;56589;51.992;5.924;2023-12-29T04:56:42;12.88;;;2.05;;
69401;SDS011;56589;51.992;5.924;2023-12-29T04:59:10;13.48;;;2.25;;
69401;SDS011;56589;51.992;5.924;2023-12-29T05:01:36;12.82;;;1.63;;
69401;SDS011;56589;51.992;5.924;2023-12-29T05:04:02;15.52;;;2.25;;
69401;SDS011;56589;51.992;5.924;2023-12-29T05:06:28;13.13;;;2.28;;
69401;SDS011;56589;51.992;5.924;2023-12-29T05:08:55;16.77;;;2.33;;
69401;SDS011;56589;51.992;5.924;2023-12-29T05:11:21;12.07;;;2.00;;
69401;SDS011;56589;51.992;5.924;2023-12-29T05:13:49;10.50;;;2.10;;
69401;SDS011;56589;51.992;5.924;2023-12-29T05:16:18;12.65;;;2.25;;
69401;SDS011;56589;51.992;5.924;2023-12-29T05:18:44;15.18;;;2.25;;
69401;SDS011;56589;51.992;5.924;2023-12-29T05:21:13;13.35;;;2.30;;
69401;SDS011;56589;51.992;5.924;2023-12-29T05:23:40;15.38;;;2.88;;
69401;SDS011;56589;51.992;5.924;2023-12-29T05:26:06;15.60;;;2.50;;
69401;SDS011;56589;51.992;5.924;2023-12-29T05:28:32;15.23;;;2.22;;
69401;SDS011;56589;51.992;5.924;2023-12-29T05:30:57;16.85;;;1.92;;
69401;SDS011;56589;51.992;5.924;2023-12-29T05:33:26;15.38;;;2.67;;
69401;SDS011;56589;51.992;5.924;2023-12-29T05:35:52;8.52;;;2.00;;
69401;SDS011;56589;51.992;5.924;2023-12-29T05:38:17;15.30;;;2.20;;
69401;SDS011;56589;51.992;5.924;2023-12-29T05:40:43;13.15;;;2.35;;
69401;SDS011;56589;51.992;5.924;2023-12-29T05:43:09;14.05;;;1.90;;
69401;SDS011;56589;51.992;5.924;2023-12-29T05:45:35;17.13;;;2.95;;
69401;SDS011;56589;51.992;5.924;2023-12-29T05:48:01;12.75;;;2.67;;
69401;SDS011;56589;51.992;5.924;2023-12-29T05:50:30;19.27;;;2.60;;
69401;SDS011;56589;51.992;5.924;2023-12-29T05:52:56;12.90;;;2.03;;
69401;SDS011;56589;51.992;5.924;2023-12-29T05:55:22;12.40;;;1.90;;
69401;SDS011;56589;51.992;5.924;2023-12-29T05:57:48;16.17;;;2.80;;
69401;SDS011;56589;51.992;5.924;2023-12-29T06:00:14;11.63;;;2.40;;
69401;SDS011;56589;51.992;5.924;2023-12-29T06:02:41;11.45;;;1.95;;
69401;SDS011;56589;51.992;5.924;2023-12-29T06:05:09;14.32;;;2.03;;
69401;SDS011;56589;51.992;5.924;2023-12-29T06:07:39;10.45;;;1.90;;
69401;SDS011;56589;51.992;5.924;2023-12-29T06:10:05;12.02;;;2.75;;
69401;SDS011;56589;51.992;5.924;2023-12-29T06:12:32;11.27;;;1.65;;
69401;SDS011;56589;51.992;5.924;2023-12-29T06:14:58;16.42;;;1.95;;
69401;SDS011;56589;51.992;5.924;2023-12-29T06:17:24;11.30;;;2.20;;
69401;SDS011;56589;51.992;5.924;2023-12-29T06:19:51;18.45;;;2.40;;
69401;SDS011;56589;51.992;5.924;2023-12-29T06:22:17;15.55;;;2.13;;
69401;SDS011;56589;51.992;5.924;2023-12-29T06:24:46;13.80;;;2.40;;
69401;SDS011;56589;51.992;5.924;2023-12-29T06:27:12;11.57;;;2.08;;
69401;SDS011;56589;51.992;5.924;2023-12-29T06:29:38;13.38;;;1.73;;
69401;SDS011;56589;51.992;5.924;2023-12-29T06:32:07;12.63;;;3.22;;
69401;SDS011;56589;51.992;5.924;2023-12-29T06:34:32;15.32;;;2.13;;
69401;SDS011;56589;51.992;5.924;2023-12-29T06:36:58;11.25;;;1.90;;
69401;SDS011;56589;51.992;5.924;2023-12-29T06:39:24;12.85;;;1.58;;
69401;SDS011;56589;51.992;5.924;2023-12-29T06:41:53;9.35;;;1.85;;
69401;SDS011;56589;51.992;5.924;2023-12-29T06:44:19;10.60;;;2.03;;
69401;SDS011;56589;51.992;5.924;2023-12-29T06:46:45;14.18;;;1.75;;
69401;SDS011;56589;51.992;5.924;2023-12-29T06:49:11;12.65;;;2.03;;
69401;SDS011;56589;51.992;5.924;2023-12-29T06:51:37;7.68;;;1.40;;
69401;SDS011;56589;51.992;5.924;2023-12-29T06:54:03;18.88;;;2.92;;
69401;SDS011;56589;51.992;5.924;2023-12-29T06:56:29;11.30;;;1.98;;
69401;SDS011;56589;51.992;5.924;2023-12-29T06:58:58;7.22;;;1.70;;
69401;SDS011;56589;51.992;5.924;2023-12-29T07:01:25;10.02;;;1.98;;
69401;SDS011;56589;51.992;5.924;2023-12-29T07:03:51;17.15;;;3.10;;
69401;SDS011;56589;51.992;5.924;2023-12-29T07:06:17;10.38;;;2.38;;
69401;SDS011;56589;51.992;5.924;2023-12-29T07:08:43;7.88;;;1.30;;
69401;SDS011;56589;51.992;5.924;2023-12-29T07:11:10;10.10;;;1.98;;
69401;SDS011;56589;51.992;5.924;2023-12-29T07:13:36;10.73;;;2.20;;
69401;SDS011;56589;51.992;5.924;2023-12-29T07:16:05;10.00;;;1.90;;
69401;SDS011;56589;51.992;5.924;2023-12-29T07:18:32;10.57;;;1.80;;
69401;SDS011;56589;51.992;5.924;2023-12-29T07:20:57;11.07;;;2.08;;
69401;SDS011;56589;51.992;5.924;2023-12-29T07:23:23;7.88;;;1.40;;
69401;SDS011;56589;51.992;5.924;2023-12-29T07:25:49;11.32;;;1.70;;
69401;SDS011;56589;51.992;5.924;2023-12-29T07:28:15;7.43;;;1.80;;
69401;SDS011;56589;51.992;5.924;2023-12-29T07:30:41;11.18;;;1.45;;
69401;SDS011;56589;51.992;5.924;2023-12-29T07:33:10;10.18;;;1.55;;
69401;SDS011;56589;51.992;5.924;2023-12-29T07:35:36;7.68;;;1.42;;
69401;SDS011;56589;51.992;5.924;2023-12-29T07:38:02;7.43;;;1.40;;
69401;SDS011;56589;51.992;5.924;2023-12-29T07:40:28;7.40;;;1.63;;
69401;SDS011;56589;51.992;5.924;2023-12-29T07:42:54;3.90;;;1.02;;
69401;SDS011;56589;51.992;5.924;2023-12-29T07:45:20;7.93;;;1.38;;
69401;SDS011;56589;51.992;5.924;2023-12-29T07:47:46;10.25;;;2.00;;
69401;SDS011;56589;51.992;5.924;2023-12-29T07:50:14;10.93;;;2.15;;
69401;SDS011;56589;51.992;5.924;2023-12-29T07:52:42;7.18;;;1.58;;
69401;SDS011;56589;51.992;5.924;2023-12-29T07:55:08;11.65;;;1.65;;
69401;SDS011;56589;51.992;5.924;2023-12-29T07:57:33;13.77;;;1.75;;
69401;SDS011;56589;51.992;5.924;2023-12-29T08:00:00;9.18;;;2.10;;
69401;SDS011;56589;51.992;5.924;2023-12-29T08:02:28;12.40;;;1.80;;
69401;SDS011;56589;51.992;5.924;2023-12-29T08:04:54;11.57;;;1.77;;
69401;SDS011;56589;51.992;5.924;2023-12-29T08:07:22;9.18;;;1.63;;
69401;SDS011;56589;51.992;5.924;2023-12-29T08:09:48;10.05;;;1.83;;
69401;SDS011;56589;51.992;5.924;2023-12-29T08:12:14;9.45;;;1.60;;
69401;SDS011;56589;51.992;5.924;2023-12-29T08:14:40;10.70;;;1.40;;
69401;SDS011;56589;51.992;5.924;2023-12-29T08:17:05;5.88;;;1.40;;
69401;SDS011;56589;51.992;5.924;2023-12-29T08:19:31;5.43;;;1.10;;
69401;SDS011;56589;51.992;5.924;2023-12-29T08:21:57;10.63;;;1.98;;
69401;SDS011;56589;51.992;5.924;2023-12-29T08:24:26;10.05;;;1.85;;
69401;SDS011;56589;51.992;5.924;2023-12-29T08:26:52;7.22;;;1.50;;
69401;SDS011;56589;51.992;5.924;2023-12-29T08:29:18;8.18;;;1.30;;
69401;SDS011;56589;51.992;5.924;2023-12-29T08:31:43;8.65;;;1.40;;
69401;SDS011;56589;51.992;5.924;2023-12-29T08:34:09;6.82;;;1.13;;
69401;SDS011;56589;51.992;5.924;2023-12-29T08:36:35;7.82;;;1.33;;
69401;SDS011;56589;51.992;5.924;2023-12-29T08:39:01;10.65;;;1.60;;
69401;SDS011;56589;51.992;5.924;2023-12-29T08:41:30;10.15;;;1.50;;
69401;SDS011;56589;51.992;5.924;2023-12-29T08:43:56;6.50;;;1.52;;
69401;SDS011;56589;51.992;5.924;2023-12-29T08:46:22;7.18;;;1.30;;
69401;SDS011;56589;51.992;5.924;2023-12-29T08:48:47;9.38;;;1.67;;
69401;SDS011;56589;51.992;5.924;2023-12-29T08:51:13;10.63;;;1.75;;
69401;SDS011;56589;51.992;5.924;2023-12-29T08:53:39;3.60;;;1.02;;
69401;SDS011;56589;51.992;5.924;2023-12-29T08:56:05;4.78;;;1.10;;
69401;SDS011;56589;51.992;5.924;2023-12-29T08:58:35;4.95;;;1.02;;
69401;SDS011;56589;51.992;5.924;2023-12-29T09:01:00;5.63;;;1.23;;
69401;SDS011;56589;51.992;5.924;2023-12-29T09:03:26;10.52;;;2.45;;
69401;SDS011;56589;51.992;5.924;2023-12-29T09:05:52;3.35;;;1.15;;
69401;SDS011;56589;51.992;5.924;2023-12-29T09:08:18;7.18;;;1.05;;
69401;SDS011;56589;51.992;5.924;2023-12-29T09:10:44;7.35;;;1.20;;
69401;SDS011;56589;51.992;5.924;2023-12-29T09:13:09;6.30;;;1.25;;
69401;SDS011;56589;51.992;5.924;2023-12-29T09:15:38;6.30;;;1.25;;
69401;SDS011;56589;51.992;5.924;2023-12-29T09:18:04;7.18;;;1.00;;
69401;SDS011;56589;51.992;5.924;2023-12-29T09:20:30;9.85;;;1.30;;
69401;SDS011;56589;51.992;5.924;2023-12-29T09:22:56;4.55;;;1.13;;
69401;SDS011;56589;51.992;5.924;2023-12-29T09:25:22;8.60;;;2.03;;
69401;SDS011;56589;51.992;5.924;2023-12-29T09:27:48;3.70;;;1.05;;
69401;SDS011;56589;51.992;5.924;2023-12-29T09:30:16;5.80;;;1.90;;
69401;SDS011;56589;51.992;5.924;2023-12-29T09:32:45;6.88;;;2.08;;
69401;SDS011;56589;51.992;5.924;2023-12-29T09:35:10;2.67;;;0.95;;
69401;SDS011;56589;51.992;5.924;2023-12-29T09:37:36;2.80;;;1.00;;
69401;SDS011;56589;51.992;5.924;2023-12-29T09:40:02;4.35;;;1.30;;
69401;SDS011;56589;51.992;5.924;2023-12-29T09:42:29;4.20;;;0.70;;
69401;SDS011;56589;51.992;5.924;2023-12-29T09:44:58;2.95;;;0.93;;
69401;SDS011;56589;51.992;5.924;2023-12-29T09:47:30;6.72;;;1.02;;
69401;SDS011;56589;51.992;5.924;2023-12-29T09:50:06;2.80;;;0.80;;
69401;SDS011;56589;51.992;5.924;2023-12-29T09:52:36;4.13;;;0.80;;
69401;SDS011;56589;51.992;5.924;2023-12-29T09:55:04;7.30;;;1.60;;
69401;SDS011;56589;51.992;5.924;2023-12-29T09:57:34;2.72;;;0.90;;
69401;SDS011;56589;51.992;5.924;2023-12-29T10:00:00;5.25;;;1.00;;
69401;SDS011;56589;51.992;5.924;2023-12-29T10:02:27;3.85;;;1.20;;
69401;SDS011;56589;51.992;5.924;2023-12-29T10:04:56;7.20;;;1.05;;
69401;SDS011;56589;51.992;5.924;2023-12-29T10:07:25;3.42;;;0.80;;
69401;SDS011;56589;51.992;5.924;2023-12-29T10:09:52;5.63;;;1.20;;
69401;SDS011;56589;51.992;5.924;2023-12-29T10:12:21;4.50;;;1.95;;
69401;SDS011;56589;51.992;5.924;2023-12-29T10:14:51;5.65;;;0.80;;
69401;SDS011;56589;51.992;5.924;2023-12-29T10:17:28;4.30;;;1.27;;
69401;SDS011;56589;51.992;5.924;2023-12-29T10:20:07;3.42;;;0.80;;
69401;SDS011;56589;51.992;5.924;2023-12-29T10:22:59;2.90;;;0.88;;
69401;SDS011;56589;51.992;5.924;2023-12-29T10:25:31;3.28;;;0.90;;
69401;SDS011;56589;51.992;5.924;2023-12-29T10:27:59;2.80;;;0.90;;
69401;SDS011;56589;51.992;5.924;2023-12-29T10:30:27;3.33;;;1.02;;
69401;SDS011;56589;51.992;5.924;2023-12-29T10:32:54;3.05;;;0.90;;
69401;SDS011;56589;51.992;5.924;2023-12-29T10:35:20;2.78;;;0.80;;
69401;SDS011;56589;51.992;5.924;2023-12-29T10:37:47;3.28;;;1.30;;
69401;SDS011;56589;51.992;5.924;2023-12-29T10:40:19;2.35;;;0.70;;
69401;SDS011;56589;51.992;5.924;2023-12-29T10:47:46;4.30;;;0.80;;
69401;SDS011;56589;51.992;5.924;2023-12-29T10:50:12;1.88;;;0.60;;
69401;SDS011;56589;51.992;5.924;2023-12-29T10:52:38;2.17;;;0.80;;
69401;SDS011;56589;51.992;5.924;2023-12-29T10:55:04;1.75;;;0.82;;
69401;SDS011;56589;51.992;5.924;2023-12-29T10:57:35;1.35;;;0.80;;
69401;SDS011;56589;51.992;5.924;2023-12-29T11:00:03;2.05;;;0.70;;
69401;SDS011;56589;51.992;5.924;2023-12-29T11:02:31;2.05;;;0.57;;
69401;SDS011;56589;51.992;5.924;2023-12-29T11:05:01;2.30;;;0.80;;
69401;SDS011;56589;51.992;5.924;2023-12-29T11:07:31;3.60;;;0.70;;
69401;SDS011;56589;51.992;5.924;2023-12-29T11:10:01;1.98;;;0.70;;
69401;SDS011;56589;51.992;5.924;2023-12-29T11:12:30;3.08;;;0.73;;
69401;SDS011;56589;51.992;5.924;2023-12-29T11:17:31;3.20;;;1.42;;
69401;SDS011;56589;51.992;5.924;2023-12-29T11:20:00;2.08;;;0.77;;
69401;SDS011;56589;51.992;5.924;2023-12-29T11:22:28;4.85;;;1.00;;
69401;SDS011;56589;51.992;5.924;2023-12-29T11:24:55;2.42;;;0.68;;
69401;SDS011;56589;51.992;5.924;2023-12-29T11:27:21;5.35;;;1.00;;
69401;SDS011;56589;51.992;5.924;2023-12-29T11:29:51;4.30;;;0.95;;
69401;SDS011;56589;51.992;5.924;2023-12-29T11:32:18;2.13;;;0.85;;
69401;SDS011;56589;51.992;5.924;2023-12-29T11:34:56;3.95;;;1.00;;
69401;SDS011;56589;51.992;5.924;2023-12-29T11:37:40;2.88;;;0.95;;
69401;SDS011;56589;51.992;5.924;2023-12-29T11:40:46;5.53;;;1.02;;
69401;SDS011;56589;51.992;5.924;2023-12-29T11:43:20;6.25;;;0.95;;
69401;SDS011;56589;51.992;5.924;2023-12-29T11:45:49;4.80;;;1.33;;
69401;SDS011;56589;51.992;5.924;2023-12-29T11:48:53;6.05;;;0.85;;
69401;SDS011;56589;51.992;5.924;2023-12-29T11:51:27;6.32;;;1.45;;
69401;SDS011;56589;51.992;5.924;2023-12-29T11:53:58;7.93;;;1.30;;
69401;SDS011;56589;51.992;5.924;2023-12-29T11:56:29;4.40;;;1.10;;
69401;SDS011;56589;51.992;5.924;2023-12-29T11:59:03;6.10;;;1.08;;
69401;SDS011;56589;51.992;5.924;2023-12-29T12:01:41;6.10;;;0.85;;
69401;SDS011;56589;51.992;5.924;2023-12-29T12:07:06;2.92;;;1.00;;
69401;SDS011;56589;51.992;5.924;2023-12-29T12:09:37;6.07;;;1.10;;
69401;SDS011;56589;51.992;5.924;2023-12-29T12:12:04;6.63;;;1.90;;
69401;SDS011;56589;51.992;5.924;2023-12-29T12:14:47;5.28;;;1.00;;
69401;SDS011;56589;51.992;5.924;2023-12-29T12:17:29;4.95;;;1.23;;
69401;SDS011;56589;51.992;5.924;2023-12-29T12:20:03;9.02;;;2.22;;
69401;SDS011;56589;51.992;5.924;2023-12-29T12:22:32;7.10;;;1.20;;
69401;SDS011;56589;51.992;5.924;2023-12-29T12:25:00;4.60;;;1.10;;
69401;SDS011;56589;51.992;5.924;2023-12-29T12:27:27;9.25;;;1.67;;
69401;SDS011;56589;51.992;5.924;2023-12-29T12:29:54;5.75;;;1.17;;
69401;SDS011;56589;51.992;5.924;2023-12-29T12:32:21;8.15;;;1.38;;
69401;SDS011;56589;51.992;5.924;2023-12-29T12:34:49;3.90;;;1.17;;
69401;SDS011;56589;51.992;5.924;2023-12-29T12:37:18;8.18;;;1.27;;
69401;SDS011;56589;51.992;5.924;2023-12-29T12:39:45;7.35;;;1.40;;
69401;SDS011;56589;51.992;5.924;2023-12-29T12:42:10;6.60;;;0.90;;
69401;SDS011;56589;51.992;5.924;2023-12-29T12:44:38;5.30;;;1.17;;
69401;SDS011;56589;51.992;5.924;2023-12-29T12:47:07;7.82;;;1.50;;
69401;SDS011;56589;51.992;5.924;2023-12-29T12:49:42;10.77;;;1.20;;
69401;SDS011;56589;51.992;5.924;2023-12-29T12:52:10;8.50;;;1.38;;
69401;SDS011;56589;51.992;5.924;2023-12-29T12:54:36;12.68;;;1.60;;
69401;SDS011;56589;51.992;5.924;2023-12-29T12:57:02;10.93;;;1.20;;
69401;SDS011;56589;51.992;5.924;2023-12-29T12:59:29;5.85;;;1.23;;
69401;SDS011;56589;51.992;5.924;2023-12-29T13:01:57;8.68;;;1.30;;
69401;SDS011;56589;51.992;5.924;2023-12-29T13:04:23;7.60;;;1.30;;
69401;SDS011;56589;51.992;5.924;2023-12-29T13:06:50;7.25;;;1.27;;
69401;SDS011;56589;51.992;5.924;2023-12-29T13:09:19;7.75;;;1.25;;
69401;SDS011;56589;51.992;5.924;2023-12-29T13:11:45;9.75;;;1.40;;
69401;SDS011;56589;51.992;5.924;2023-12-29T13:14:19;7.90;;;1.45;;
69401;SDS011;56589;51.992;5.924;2023-12-29T13:16:45;12.20;;;1.40;;
69401;SDS011;56589;51.992;5.924;2023-12-29T13:19:15;11.05;;;1.35;;
69401;SDS011;56589;51.992;5.924;2023-12-29T13:21:42;18.85;;;3.28;;
69401;SDS011;56589;51.992;5.924;2023-12-29T13:24:08;13.32;;;1.50;;
69401;SDS011;56589;51.992;5.924;2023-12-29T13:26:37;6.45;;;1.50;;
69401;SDS011;56589;51.992;5.924;2023-12-29T13:29:03;8.43;;;1.95;;
69401;SDS011;56589;51.992;5.924;2023-12-29T13:31:32;5.93;;;1.20;;
69401;SDS011;56589;51.992;5.924;2023-12-29T13:33:59;7.80;;;1.10;;
69401;SDS011;56589;51.992;5.924;2023-12-29T13:39:06;9.45;;;1.60;;
69401;SDS011;56589;51.992;5.924;2023-12-29T13:41:53;8.82;;;1.42;;
69401;SDS011;56589;51.992;5.924;2023-12-29T13:44:21;6.30;;;1.55;;
69401;SDS011;56589;51.992;5.924;2023-12-29T13:46:48;10.23;;;1.33;;
69401;SDS011;56589;51.992;5.924;2023-12-29T13:49:16;12.50;;;1.70;;
69401;SDS011;56589;51.992;5.924;2023-12-29T13:51:44;8.43;;;1.17;;
69401;SDS011;56589;51.992;5.924;2023-12-29T13:54:12;9.77;;;1.45;;
69401;SDS011;56589;51.992;5.924;2023-12-29T13:56:38;10.43;;;1.75;;
69401;SDS011;56589;51.992;5.924;2023-12-29T13:59:18;10.38;;;4.82;;
69401;SDS011;56589;51.992;5.924;2023-12-29T14:01:45;11.68;;;5.05;;
69401;SDS011;56589;51.992;5.924;2023-12-29T14:04:14;7.60;;;2.50;;
69401;SDS011;56589;51.992;5.924;2023-12-29T14:06:41;8.15;;;1.45;;
69401;SDS011;56589;51.992;5.924;2023-12-29T14:09:15;12.07;;;1.77;;
69401;SDS011;56589;51.992;5.924;2023-12-29T14:11:43;6.35;;;1.10;;
69401;SDS011;56589;51.992;5.924;2023-12-29T14:14:10;10.07;;;1.50;;
69401;SDS011;56589;51.992;5.924;2023-12-29T14:16:40;9.90;;;1.35;;
69401;SDS011;56589;51.992;5.924;2023-12-29T14:19:06;6.05;;;1.38;;
69401;SDS011;56589;51.992;5.924;2023-12-29T14:21:33;12.18;;;1.38;;
69401;SDS011;56589;51.992;5.924;2023-12-29T14:24:08;4.72;;;1.45;;
69401;SDS011;56589;51.992;5.924;2023-12-29T14:26:36;13.52;;;1.95;;
69401;SDS011;56589;51.992;5.924;2023-12-29T14:29:03;8.88;;;1.30;;
69401;SDS011;56589;51.992;5.924;2023-12-29T14:31:31;11.68;;;1.67;;
69401;SDS011;56589;51.992;5.924;2023-12-29T16:15:34;7.03;;;2.92;;
69401;SDS011;56589;51.992;5.924;2023-12-29T16:17:59;6.78;;;2.55;;
69401;SDS011;56589;51.992;5.924;2023-12-29T16:20:25;6.57;;;2.00;;
69401;SDS011;56589;51.992;5.924;2023-12-29T16:22:51;4.40;;;1.80;;
69401;SDS011;56589;51.992;5.924;2023-12-29T16:25:17;9.45;;;1.90;;
69401;SDS011;56589;51.992;5.924;2023-12-29T16:27:43;3.88;;;1.98;;
69401;SDS011;56589;51.992;5.924;2023-12-29T16:30:13;7.53;;;1.88;;
69401;SDS011;56589;51.992;5.924;2023-12-29T16:32:38;12.00;;;4.22;;
69401;SDS011;56589;51.992;5.924;2023-12-29T16:35:05;7.72;;;2.03;;
69401;SDS011;56589;51.992;5.924;2023-12-29T16:37:35;3.10;;;1.40;;
69401;SDS011;56589;51.992;5.924;2023-12-29T16:40:03;6.05;;;1.42;;
69401;SDS011;56589;51.992;5.924;2023-12-29T16:42:31;5.65;;;1.48;;
69401;SDS011;56589;51.992;5.924;2023-12-29T16:44:56;3.58;;;1.35;;